Time;durP1;ratioP1;P1;durP2;ratioP2;P2;SDS_P1;SDS_P2;PMS_P1;PMS_P2;Temp;Humidity;BMP_temperature;BMP_pressure;BME280_temperature;BME280_humidity;BME280_pressure;Samples;Min_cycle;Max_cycle;Signal;HPM_P1;HPM_P2
2021/03/05 00:52:31;;;;;;;0.60;0.60;;;-0.10;99.90;;;;;;5069246;23;20241;-82
2021/03/05 00:54:57;;;;;;;0.60;0.60;;;-0.60;99.90;;;;;;4920525;29;20231;-80
2021/03/05 01:00:10;;;;;;;0.60;0.60;;;-0.20;99.90;;;;;;5030519;23;20232;-82
2021/03/05 01:18:10;;;;;;;0.60;0.60;;;-0.50;99.90;;;;;;5547111;23;20255;-82
2021/03/05 01:36:13;;;;;;;0.60;0.60;;;-0.80;99.90;;;;;;5784849;23;20237;-80
2021/03/05 01:38:55;;;;;;;0.60;0.60;;;-0.90;99.90;;;;;;4940589;29;20241;-80
2021/03/05 01:41:30;;;;;;;0.60;0.60;;;-0.90;99.90;;;;;;4940796;29;20332;-81
2021/03/05 01:44:16;;;;;;;0.50;0.50;;;-1.00;99.90;;;;;;4940846;29;20264;-81
2021/03/05 01:46:48;;;;;;;0.55;0.55;;;-2.00;99.90;;;;;;4940814;29;20221;-81
2021/03/05 03:51:54;;;;;;;0.60;0.60;;;-2.20;99.90;;;;;;5614838;23;20225;-82
2021/03/05 03:54:21;;;;;;;0.60;0.60;;;-2.30;99.90;;;;;;4921565;29;20208;-82
2021/03/05 03:56:50;;;;;;;0.60;0.60;;;2.00;99.90;;;;;;4920631;29;20190;-82
2021/03/05 03:59:25;;;;;;;0.60;0.60;;;-2.40;99.90;;;;;;4921783;29;20292;-83
2021/03/05 04:01:58;;;;;;;0.50;0.50;;;-0.60;99.90;;;;;;4921452;29;20245;-82
2021/03/05 04:04:33;;;;;;;0.60;0.60;;;-2.40;99.90;;;;;;4919621;29;20213;-83
2021/03/05 04:07:05;;;;;;;0.55;0.55;;;-1.40;99.90;;;;;;4916148;29;20209;-83
2021/03/05 04:09:33;;;;;;;0.60;0.60;;;-2.80;99.90;;;;;;4917619;29;20216;-84
2021/03/05 04:12:02;;;;;;;0.60;0.60;;;-2.20;99.90;;;;;;4915658;29;20217;-83
2021/03/05 04:14:30;;;;;;;0.60;0.60;;;-2.00;99.90;;;;;;4912751;29;20238;-83
2021/03/05 04:16:58;;;;;;;0.60;0.60;;;-3.00;99.90;;;;;;4911332;29;20206;-83
2021/03/05 04:19:29;;;;;;;0.60;0.60;;;-2.70;99.90;;;;;;4913062;29;20252;-83
2021/03/05 04:21:56;;;;;;;0.60;0.60;;;-2.80;99.90;;;;;;4912776;29;20277;-82
2021/03/05 04:32:10;;;;;;;0.50;0.50;;;-2.60;99.90;;;;;;5001553;23;20240;-81
2021/03/05 04:34:36;;;;;;;0.52;0.52;;;-2.60;99.90;;;;;;4931860;29;20205;-82
2021/03/05 04:37:02;;;;;;;0.60;0.60;;;-2.60;99.90;;;;;;4925256;29;20228;-82
2021/03/05 04:39:29;;;;;;;0.60;0.60;;;-2.60;99.90;;;;;;4918359;29;20213;-82
2021/03/05 04:41:55;;;;;;;0.60;0.60;;;-2.60;99.90;;;;;;4914808;29;20201;-81
2021/03/05 04:44:22;;;;;;;0.60;0.60;;;-2.60;99.90;;;;;;4911300;29;20315;-82
2021/03/05 04:46:49;;;;;;;0.60;0.60;;;-2.60;99.90;;;;;;4918440;29;20232;-82
2021/03/05 04:49:16;;;;;;;0.60;0.60;;;-2.60;99.90;;;;;;4921410;29;20212;-82
2021/03/05 04:51:42;;;;;;;0.50;0.50;;;-2.60;99.90;;;;;;4920958;29;20240;-82
2021/03/05 04:54:10;;;;;;;0.60;0.60;;;-2.70;99.90;;;;;;4919382;29;20365;-82
2021/03/05 04:56:37;;;;;;;0.60;0.60;;;-2.70;99.90;;;;;;4915923;29;20590;-82
2021/03/05 04:59:03;;;;;;;0.50;0.50;;;-2.80;99.90;;;;;;4918603;29;20216;-82
2021/03/05 05:01:30;;;;;;;0.50;0.50;;;-2.10;99.90;;;;;;4915403;29;20197;-82
2021/03/05 05:03:56;;;;;;;0.60;0.60;;;-2.90;99.90;;;;;;4914656;29;20213;-81
2021/03/05 05:06:23;;;;;;;0.60;0.60;;;-2.80;99.90;;;;;;4917663;29;20225;-82
2021/03/05 05:08:51;;;;;;;0.60;0.60;;;-2.80;99.90;;;;;;4913668;29;20213;-82
2021/03/05 05:11:17;;;;;;;0.50;0.50;;;-2.80;99.90;;;;;;4918699;29;20316;-82
2021/03/05 05:13:44;;;;;;;0.60;0.60;;;-2.70;99.90;;;;;;4922753;29;20236;-82
2021/03/05 05:16:10;;;;;;;0.60;0.60;;;-2.80;99.90;;;;;;4919794;29;20282;-82
2021/03/05 05:18:36;;;;;;;0.60;0.60;;;-2.90;99.90;;;;;;4926136;29;20465;-81
2021/03/05 05:21:05;;;;;;;0.60;0.60;;;-2.90;99.90;;;;;;4935912;29;20272;-82
2021/03/05 05:23:32;;;;;;;0.60;0.60;;;-2.90;99.90;;;;;;4913888;29;20292;-81
2021/03/05 05:25:58;;;;;;;0.50;0.50;;;-2.90;99.90;;;;;;4913781;29;20221;-80
2021/03/05 05:28:24;;;;;;;0.60;0.60;;;-2.60;99.90;;;;;;4922266;29;20213;-81
2021/03/05 05:30:51;;;;;;;0.60;0.60;;;-3.00;99.90;;;;;;4909068;29;20245;-81
2021/03/05 05:33:17;;;;;;;0.60;0.60;;;-3.20;99.90;;;;;;4907568;29;20205;-80
2021/03/05 05:35:43;;;;;;;0.60;0.60;;;-3.20;99.90;;;;;;4916121;29;20215;-80
2021/03/05 05:38:10;;;;;;;0.60;0.60;;;-3.30;99.90;;;;;;4910331;29;20205;-81
2021/03/05 05:40:37;;;;;;;0.60;0.60;;;-3.30;99.90;;;;;;4911554;29;20224;-80
2021/03/05 05:43:05;;;;;;;0.50;0.50;;;-3.30;99.90;;;;;;4911803;29;20220;-80
2021/03/05 05:45:31;;;;;;;0.60;0.60;;;-3.30;99.90;;;;;;4914470;29;20596;-80
2021/03/05 05:47:59;;;;;;;0.60;0.60;;;-3.00;99.90;;;;;;4912077;29;20220;-80
2021/03/05 05:50:27;;;;;;;0.60;0.60;;;-3.30;99.90;;;;;;4919820;29;20229;-79
2021/03/05 05:52:55;;;;;;;0.60;0.60;;;-3.30;99.90;;;;;;4913197;29;20212;-80
2021/03/05 05:55:23;;;;;;;0.60;0.60;;;-3.30;99.90;;;;;;4913829;29;20201;-81
2021/03/05 05:57:50;;;;;;;0.60;0.60;;;-3.30;99.90;;;;;;4910617;29;20205;-81
2021/03/05 06:00:17;;;;;;;0.60;0.60;;;-3.30;99.90;;;;;;4910508;29;20217;-81
2021/03/05 06:02:45;;;;;;;0.60;0.60;;;-3.00;99.90;;;;;;4914079;29;20614;-81
2021/03/05 06:05:14;;;;;;;0.60;0.60;;;-3.30;99.90;;;;;;4912190;29;20228;-80
2021/03/05 06:07:42;;;;;;;0.60;0.60;;;-3.30;99.90;;;;;;4912181;29;20687;-80
2021/03/05 06:10:10;;;;;;;0.60;0.60;;;-3.30;99.90;;;;;;4910488;29;20213;-80
2021/03/05 06:12:36;;;;;;;0.60;0.60;;;-3.30;99.90;;;;;;4909802;29;20209;-80
2021/03/05 06:15:04;;;;;;;0.60;0.60;;;-3.30;99.90;;;;;;4910091;29;20224;-81
2021/03/05 06:17:44;;;;;;;0.60;0.60;;;-3.30;99.90;;;;;;4908058;29;20209;-81
2021/03/05 06:20:11;;;;;;;0.60;0.60;;;-3.30;99.90;;;;;;4909707;29;20664;-81
2021/03/05 06:22:38;;;;;;;0.60;0.60;;;-3.30;99.90;;;;;;4908120;29;20432;-80
2021/03/05 06:25:05;;;;;;;0.60;0.60;;;-3.30;99.90;;;;;;4909834;29;20256;-80
2021/03/05 06:27:33;;;;;;;0.50;0.50;;;-3.40;99.90;;;;;;4910136;29;20205;-80
2021/03/05 06:30:00;;;;;;;0.60;0.60;;;-3.40;99.90;;;;;;4911598;29;20205;-81
2021/03/05 06:32:41;;;;;;;0.60;0.60;;;-3.40;99.90;;;;;;4910057;29;20620;-80
2021/03/05 06:35:12;;;;;;;0.52;0.52;;;-3.40;99.90;;;;;;4911591;29;20801;-80
2021/03/05 06:37:43;;;;;;;0.60;0.60;;;-3.30;99.90;;;;;;4907628;29;20217;-80
2021/03/05 06:40:11;;;;;;;0.60;0.60;;;-3.30;99.90;;;;;;4907799;29;20668;-79
2021/03/05 06:42:50;;;;;;;0.60;0.60;;;-3.30;99.90;;;;;;4906417;29;20224;-80
2021/03/05 06:45:18;;;;;;;0.60;0.60;;;-3.20;99.90;;;;;;4881633;29;20228;-80
2021/03/05 06:48:01;;;;;;;0.60;0.60;;;-3.20;99.90;;;;;;4901917;29;20213;-81
2021/03/05 06:50:28;;;;;;;0.60;0.60;;;-3.10;99.90;;;;;;4908050;29;20288;-79
2021/03/05 06:52:54;;;;;;;0.60;0.60;;;-3.10;99.90;;;;;;4908644;29;20209;-81
2021/03/05 06:55:21;;;;;;;0.60;0.60;;;-3.00;99.90;;;;;;4906154;29;20237;-81
2021/03/05 06:57:48;;;;;;;0.60;0.60;;;-2.90;99.90;;;;;;4899428;29;20261;-80
2021/03/05 07:00:20;;;;;;;0.50;0.50;;;-2.90;99.90;;;;;;4907065;29;20230;-80
2021/03/05 07:02:46;;;;;;;0.60;0.60;;;-2.80;99.90;;;;;;4905363;29;20240;-80
2021/03/05 07:05:16;;;;;;;0.60;0.60;;;-2.80;99.90;;;;;;4909706;29;20787;-80
2021/03/05 07:07:43;;;;;;;0.60;0.60;;;-2.70;99.90;;;;;;4907775;29;20205;-81
2021/03/05 07:10:11;;;;;;;0.60;0.60;;;-2.60;99.90;;;;;;4911383;29;20300;-80
2021/03/05 07:12:37;;;;;;;0.60;0.60;;;-2.50;99.90;;;;;;4907959;29;20582;-80
2021/03/05 07:15:23;;;;;;;0.50;0.50;;;-2.50;99.90;;;;;;4908223;29;20208;-80
2021/03/05 07:17:49;;;;;;;0.60;0.60;;;-2.30;99.90;;;;;;4906324;29;20209;-80
2021/03/05 07:20:16;;;;;;;0.60;0.60;;;-2.30;99.90;;;;;;4907480;29;20384;-82
2021/03/05 07:22:47;;;;;;;0.60;0.60;;;-2.30;99.90;;;;;;4907601;29;20216;-81
2021/03/05 07:25:16;;;;;;;0.50;0.50;;;-2.30;99.90;;;;;;4904071;29;20205;-80
2021/03/05 07:27:43;;;;;;;0.60;0.60;;;-2.20;99.90;;;;;;4907686;29;20213;-79
2021/03/05 07:30:12;;;;;;;0.60;0.60;;;-2.20;99.90;;;;;;4907575;29;20213;-80
2021/03/05 07:32:40;;;;;;;0.60;0.60;;;-2.10;99.90;;;;;;4907676;29;20420;-80
2021/03/05 07:35:13;;;;;;;0.60;0.60;;;-2.10;99.90;;;;;;4908423;29;21191;-79
2021/03/05 07:37:45;;;;;;;0.60;0.60;;;-2.10;99.90;;;;;;4905670;29;20213;-79
2021/03/05 07:40:14;;;;;;;0.55;0.55;;;-2.10;99.90;;;;;;4909573;29;20272;-78
2021/03/05 07:42:41;;;;;;;0.60;0.60;;;-2.00;99.90;;;;;;4912170;29;20209;-78
2021/03/05 07:45:09;;;;;;;0.60;0.60;;;-2.00;99.90;;;;;;4911023;29;20666;-79
2021/03/05 07:47:38;;;;;;;0.60;0.60;;;-1.90;99.90;;;;;;4912644;29;20292;-78
2021/03/05 07:50:08;;;;;;;0.52;0.52;;;-1.90;99.90;;;;;;4911821;29;20233;-81
2021/03/05 07:52:34;;;;;;;0.50;0.50;;;-1.80;99.90;;;;;;4910849;29;20209;-78
2021/03/05 07:55:02;;;;;;;0.50;0.50;;;-1.70;99.90;;;;;;4913282;29;20224;-80
2021/03/05 07:57:46;;;;;;;0.60;0.60;;;-1.60;99.90;;;;;;4913001;29;20216;-80
2021/03/05 08:00:15;;;;;;;0.60;0.60;;;-1.60;99.90;;;;;;4911512;29;20272;-80
2021/03/05 08:02:55;;;;;;;0.55;0.55;;;-1.50;99.90;;;;;;4912471;29;20212;-79
2021/03/05 08:05:32;;;;;;;0.57;0.57;;;-1.50;99.90;;;;;;4909081;29;20617;-79
2021/03/05 08:08:17;;;;;;;0.50;0.50;;;-1.40;99.90;;;;;;4910070;29;20265;-79
2021/03/05 08:10:46;;;;;;;0.57;0.57;;;-1.30;99.90;;;;;;4913019;29;20216;-79
2021/03/05 08:13:34;;;;;;;0.50;0.50;;;-1.30;99.90;;;;;;4913021;29;20213;-80
2021/03/05 08:16:45;;;;;;;0.60;0.60;;;-1.20;99.90;;;;;;4911665;29;20217;-79
2021/03/05 08:19:41;;;;;;;0.60;0.60;;;-1.10;99.90;;;;;;4914232;29;20219;-80
2021/03/05 08:22:08;;;;;;;0.60;0.60;;;-1.10;99.90;;;;;;4896929;29;20216;-80
2021/03/05 08:24:36;;;;;;;0.60;0.60;;;-1.00;99.90;;;;;;4912758;29;20744;-80
2021/03/05 08:27:05;;;;;;;0.50;0.50;;;-0.90;99.90;;;;;;4912388;29;20236;-80
2021/03/05 08:29:56;;;;;;;0.50;0.50;;;-0.70;99.90;;;;;;4913069;29;20212;-80
2021/03/05 08:33:02;;;;;;;0.60;0.60;;;-0.20;99.90;;;;;;4912919;29;20223;-81
2021/03/05 08:35:45;;;;;;;0.50;0.50;;;-0.20;99.90;;;;;;4912553;29;20201;-81
2021/03/05 08:38:15;;;;;;;0.60;0.60;;;-0.10;99.90;;;;;;4900372;29;20205;-80
2021/03/05 08:40:50;;;;;;;0.60;0.60;;;0.10;99.90;;;;;;4908100;29;20202;-81
2021/03/05 08:43:19;;;;;;;0.60;0.60;;;0.10;99.90;;;;;;4900208;29;20209;-81
2021/03/05 08:45:47;;;;;;;0.60;0.60;;;0.20;99.90;;;;;;4903529;29;20236;-80
2021/03/05 08:48:25;;;;;;;0.57;0.57;;;0.30;99.90;;;;;;4913138;29;20205;-81
2021/03/05 08:50:51;;;;;;;0.60;0.60;;;0.30;99.90;;;;;;4912354;29;20243;-81
2021/03/05 08:53:18;;;;;;;0.60;0.60;;;0.30;99.90;;;;;;4912735;29;20672;-81
2021/03/05 08:55:45;;;;;;;0.50;0.50;;;0.40;99.90;;;;;;4912725;29;20213;-81
2021/03/05 08:58:15;;;;;;;0.60;0.60;;;0.40;99.90;;;;;;4914333;29;20231;-82
2021/03/05 09:00:46;;;;;;;0.60;0.60;;;0.40;99.90;;;;;;4933284;29;20216;-81
2021/03/05 09:03:21;;;;;;;0.60;0.60;;;0.50;99.90;;;;;;4923406;29;20669;-82
2021/03/05 09:05:51;;;;;;;0.60;0.60;;;0.80;99.90;;;;;;4908224;29;20225;-81
2021/03/05 09:08:21;;;;;;;0.57;0.57;;;1.10;99.90;;;;;;4914821;29;20248;-81
2021/03/05 09:10:51;;;;;;;0.60;0.60;;;0.40;99.90;;;;;;4914695;29;20228;-81
2021/03/05 09:13:21;;;;;;;0.60;0.60;;;1.00;99.90;;;;;;4919950;29;20260;-81
2021/03/05 09:15:50;;;;;;;0.60;0.60;;;1.00;99.90;;;;;;4919149;29;20208;-81
2021/03/05 09:18:24;;;;;;;0.60;0.60;;;1.60;99.90;;;;;;4918957;29;20210;-81
2021/03/05 09:20:53;;;;;;;0.60;0.60;;;2.00;99.90;;;;;;4920450;29;20208;-81
2021/03/05 09:23:22;;;;;;;0.60;0.60;;;1.90;99.90;;;;;;4920113;29;20213;-81
2021/03/05 09:25:50;;;;;;;0.60;0.60;;;1.70;99.90;;;;;;4921248;29;20225;-81
2021/03/05 09:28:17;;;;;;;0.60;0.60;;;2.00;99.90;;;;;;4921968;29;20580;-81
2021/03/05 09:30:48;;;;;;;0.60;0.60;;;1.90;99.90;;;;;;4918659;29;20367;-81
2021/03/05 09:33:15;;;;;;;0.50;0.50;;;1.90;99.90;;;;;;4934765;29;20784;-81
2021/03/05 09:35:41;;;;;;;0.60;0.60;;;1.90;99.90;;;;;;4921439;29;20292;-81
2021/03/05 09:38:08;;;;;;;0.60;0.60;;;1.80;99.90;;;;;;4921811;29;20213;-81
2021/03/05 09:40:34;;;;;;;0.60;0.60;;;2.00;99.90;;;;;;4921901;29;20212;-81
2021/03/05 09:43:02;;;;;;;0.50;0.50;;;2.10;99.90;;;;;;4924778;29;20222;-84
2021/03/05 09:45:37;;;;;;;0.50;0.50;;;2.30;99.90;;;;;;4918463;29;20253;-81
2021/03/05 09:48:05;;;;;;;0.50;0.50;;;2.30;99.90;;;;;;4917529;29;20275;-80
2021/03/05 09:50:33;;;;;;;0.50;0.50;;;2.50;99.90;;;;;;4918403;29;20254;-81
2021/03/05 09:53:19;;;;;;;0.50;0.50;;;2.70;99.90;;;;;;4919438;29;20205;-81
2021/03/05 09:55:50;;;;;;;0.60;0.60;;;2.70;99.90;;;;;;4922196;29;20348;-80
2021/03/05 09:58:20;;;;;;;0.60;0.60;;;2.60;99.90;;;;;;4926552;29;20212;-81
2021/03/05 10:00:47;;;;;;;0.60;0.60;;;2.60;99.90;;;;;;4924567;29;20209;-80
2021/03/05 10:03:22;;;;;;;0.60;0.60;;;2.60;99.90;;;;;;4933547;29;20206;-80
2021/03/05 10:05:53;;;;;;;0.50;0.50;;;2.50;99.90;;;;;;4924716;29;20247;-81
2021/03/05 10:08:21;;;;;;;0.60;0.60;;;3.10;99.90;;;;;;4927118;29;20217;-79
2021/03/05 10:11:14;;;;;;;0.60;0.60;;;2.80;99.90;;;;;;4918495;29;20546;-79
2021/03/05 10:13:52;;;;;;;0.60;0.60;;;2.90;99.90;;;;;;4877615;29;20213;-79
2021/03/05 10:16:21;;;;;;;0.60;0.60;;;3.00;99.90;;;;;;4913512;29;20201;-79
2021/03/05 10:18:49;;;;;;;0.60;0.60;;;3.20;99.90;;;;;;4916475;29;20220;-82
2021/03/05 10:21:18;;;;;;;0.50;0.50;;;3.50;99.90;;;;;;4931399;29;20205;-79
2021/03/05 10:23:44;;;;;;;0.60;0.60;;;3.40;99.90;;;;;;4933852;29;20237;-80
2021/03/05 10:26:24;;;;;;;0.60;0.60;;;3.40;99.90;;;;;;4929421;29;20241;-80
2021/03/05 10:29:00;;;;;;;0.55;0.55;;;3.40;99.90;;;;;;4930910;29;20205;-81
2021/03/05 10:44:30;;;;;;;0.60;0.60;;;3.90;99.90;;;;;;4987102;23;20862;-78
2021/03/05 10:46:57;;;;;;;0.60;0.60;;;4.00;99.90;;;;;;4917558;29;20232;-80
2021/03/05 10:57:34;;;;;;;0.60;0.60;;;4.10;99.90;;;;;;5697991;23;20246;-79
2021/03/05 11:00:01;;;;;;;0.50;0.50;;;4.10;99.90;;;;;;4909959;29;20312;-80
2021/03/05 11:02:29;;;;;;;0.52;0.52;;;4.20;99.90;;;;;;4911975;29;20217;-80
2021/03/05 11:04:55;;;;;;;0.60;0.60;;;4.30;99.90;;;;;;4912368;29;20727;-79
2021/03/05 11:07:21;;;;;;;0.60;0.60;;;4.50;99.90;;;;;;4912300;29;20599;-80
2021/03/05 11:09:47;;;;;;;0.60;0.60;;;4.60;99.90;;;;;;4910803;29;20209;-80
2021/03/05 11:12:14;;;;;;;0.60;0.60;;;4.30;99.90;;;;;;4914323;29;20560;-84
2021/03/05 11:41:45;;;;;;;0.60;0.60;;;6.30;99.90;;;;;;5780688;23;20249;-83
2021/03/05 11:49:44;;;;;;;0.52;0.52;;;7.50;99.90;;;;;;4916431;29;20263;-80
2021/03/05 11:52:10;;;;;;;0.60;0.60;;;7.40;99.90;;;;;;4909167;29;20217;-80
2021/03/05 11:54:37;;;;;;;0.60;0.60;;;7.20;99.90;;;;;;4908652;29;20216;-80
2021/03/05 11:57:05;;;;;;;0.60;0.60;;;7.40;99.90;;;;;;4915817;29;20569;-79
2021/03/05 11:59:31;;;;;;;0.60;0.60;;;7.40;99.90;;;;;;4911620;29;20743;-79
2021/03/05 12:01:57;;;;;;;0.60;0.60;;;7.80;99.90;;;;;;4910482;29;20217;-80
2021/03/05 12:04:23;;;;;;;0.60;0.60;;;7.80;99.90;;;;;;4906886;29;20263;-79
2021/03/05 12:06:50;;;;;;;0.60;0.60;;;7.90;99.90;;;;;;4896508;29;20237;-79
2021/03/05 12:09:16;;;;;;;0.60;0.60;;;8.00;99.70;;;;;;4905862;29;20521;-80
2021/03/05 12:11:42;;;;;;;0.52;0.52;;;8.10;99.90;;;;;;4905158;29;20209;-79
2021/03/05 12:14:09;;;;;;;0.60;0.60;;;7.60;99.90;;;;;;4898479;29;20202;-80
2021/03/05 12:16:35;;;;;;;0.50;0.50;;;7.90;99.90;;;;;;4912449;29;20402;-81
2021/03/05 12:19:02;;;;;;;0.60;0.60;;;8.20;98.60;;;;;;4916146;29;20209;-81
2021/03/05 12:21:29;;;;;;;0.60;0.60;;;7.70;96.90;;;;;;4923698;29;20209;-80
2021/03/05 12:23:55;;;;;;;0.60;0.60;;;9.00;99.90;;;;;;4998854;23;20267;-81
2021/03/05 12:26:21;;;;;;;0.60;0.60;;;7.30;99.90;;;;;;4915703;29;20225;-80
2021/03/05 12:28:48;;;;;;;0.60;0.60;;;8.10;99.90;;;;;;4920838;29;20212;-80
2021/03/05 12:31:15;;;;;;;0.60;0.60;;;8.40;99.50;;;;;;4920181;29;20220;-80
2021/03/05 12:33:43;;;;;;;0.60;0.60;;;8.40;99.90;;;;;;4940453;29;20228;-80
2021/03/05 12:36:10;;;;;;;0.60;0.60;;;8.40;98.40;;;;;;5141816;23;20433;-79
2021/03/05 12:38:36;;;;;;;0.60;0.60;;;8.10;97.50;;;;;;4918799;29;20209;-79
2021/03/05 12:41:03;;;;;;;0.60;0.60;;;7.90;97.10;;;;;;4914199;29;20221;-80
2021/03/05 12:43:29;;;;;;;0.50;0.50;;;8.10;97.90;;;;;;4917572;29;20212;-80
2021/03/05 12:45:55;;;;;;;0.60;0.60;;;8.10;98.00;;;;;;4915431;29;20704;-79
2021/03/05 12:48:28;;;;;;;0.50;0.50;;;8.00;96.30;;;;;;4933568;29;20205;-80
2021/03/05 12:50:59;;;;;;;0.60;0.60;;;7.90;95.70;;;;;;4937315;29;20264;-80
2021/03/05 12:58:33;;;;;;;0.60;0.60;;;8.10;97.00;;;;;;4917643;29;20220;-81
2021/03/05 13:08:51;;;;;;;0.60;0.60;;;8.40;95.20;;;;;;4919208;27;20228;-80
2021/03/05 13:11:17;;;;;;;0.60;0.60;;;8.40;97.20;;;;;;5020048;23;20807;-83
2021/03/05 13:13:44;;;;;;;0.60;0.60;;;8.40;95.60;;;;;;4915395;29;20551;-82
2021/03/05 13:16:11;;;;;;;0.60;0.60;;;8.20;94.30;;;;;;4912009;29;20208;-81
2021/03/05 13:18:37;;;;;;;0.60;0.60;;;8.20;94.60;;;;;;4911624;29;20218;-82
2021/03/05 13:21:03;;;;;;;0.60;0.60;;;8.20;94.40;;;;;;4911299;29;20209;-82
2021/03/05 13:23:29;;;;;;;0.50;0.50;;;8.40;95.40;;;;;;4915934;29;20217;-82
2021/03/05 13:26:00;;;;;;;0.60;0.60;;;8.40;94.70;;;;;;4924066;29;20260;-80
2021/03/05 13:28:27;;;;;;;0.60;0.60;;;8.10;93.20;;;;;;4913712;29;20603;-83
2021/03/05 13:30:53;;;;;;;0.55;0.55;;;8.30;93.90;;;;;;4908449;29;20577;-82
2021/03/05 13:33:19;;;;;;;0.55;0.55;;;10.00;96.00;;;;;;4939578;29;20208;-87
2021/03/05 13:35:46;;;;;;;0.60;0.60;;;8.70;96.50;;;;;;4914150;29;20585;-86
2021/03/05 13:38:12;;;;;;;0.60;0.60;;;8.10;92.40;;;;;;4909468;29;20209;-85
2021/03/05 13:40:38;;;;;;;0.60;0.60;;;8.50;95.60;;;;;;4917733;29;20200;-85
2021/03/05 13:43:08;;;;;;;0.60;0.60;;;8.60;95.40;;;;;;4929350;29;20323;-84
2021/03/05 13:45:38;;;;;;;0.60;0.60;;;8.10;94.80;;;;;;4944254;29;20267;-85
2021/03/05 13:48:07;;;;;;;0.60;0.60;;;9.20;95.70;;;;;;4954054;28;20220;-84
2021/03/05 14:03:42;;;;;;;0.60;0.60;;;7.20;91.80;;;;;;4999304;23;20313;-82
2021/03/05 14:08:44;;;;;;;0.60;0.60;;;7.40;92.50;;;;;;4922418;23;20267;-82
2021/03/05 14:11:10;;;;;;;0.60;0.60;;;7.60;93.90;;;;;;4897800;29;20221;-81
2021/03/05 14:13:36;;;;;;;0.60;0.60;;;7.60;92.60;;;;;;4894457;29;20265;-81
2021/03/05 14:16:03;;;;;;;0.60;0.60;;;7.60;92.70;;;;;;4893334;29;20295;-81
2021/03/05 14:18:29;;;;;;;0.60;0.60;;;7.70;91.70;;;;;;4914557;29;20288;-81
2021/03/05 14:20:56;;;;;;;0.60;0.60;;;7.70;90.60;;;;;;4911661;29;20224;-80
2021/03/05 14:23:23;;;;;;;0.60;0.60;;;7.60;92.00;;;;;;4915103;29;20216;-82
2021/03/05 14:25:49;;;;;;;0.60;0.60;;;7.70;90.90;;;;;;4914063;29;20213;-82
2021/03/05 14:28:16;;;;;;;0.60;0.60;;;7.80;90.90;;;;;;4914373;29;20212;-82
2021/03/05 14:30:42;;;;;;;0.60;0.60;;;7.70;92.60;;;;;;4913786;29;20285;-82
2021/03/05 14:33:09;;;;;;;0.60;0.60;;;7.80;92.30;;;;;;4914416;29;20518;-82
2021/03/05 14:35:35;;;;;;;0.60;0.60;;;7.80;92.40;;;;;;4914221;29;20197;-82
2021/03/05 14:38:03;;;;;;;0.60;0.60;;;7.90;91.90;;;;;;4914327;29;20216;-82
2021/03/05 14:40:29;;;;;;;0.60;0.60;;;7.70;91.80;;;;;;4914377;29;20205;-82
2021/03/05 14:42:55;;;;;;;0.60;0.60;;;7.40;92.20;;;;;;4914248;29;20217;-81
2021/03/05 14:45:21;;;;;;;0.60;0.60;;;7.40;92.90;;;;;;4913329;29;20284;-82
2021/03/05 14:47:47;;;;;;;0.60;0.60;;;7.20;93.10;;;;;;4914249;29;20228;-82
2021/03/05 14:50:14;;;;;;;0.60;0.60;;;7.30;93.30;;;;;;4909374;29;20225;-82
2021/03/05 14:52:40;;;;;;;0.60;0.60;;;7.50;94.30;;;;;;4895317;29;20228;-82
2021/03/05 14:55:08;;;;;;;0.60;0.60;;;7.40;92.60;;;;;;4894804;29;20206;-81
2021/03/05 14:57:34;;;;;;;0.60;0.60;;;7.20;93.20;;;;;;4895396;29;20212;-83
2021/03/05 15:00:01;;;;;;;0.60;0.60;;;7.20;94.10;;;;;;4894871;29;20213;-82
2021/03/05 15:02:28;;;;;;;0.60;0.60;;;7.10;93.10;;;;;;4896877;29;20216;-83
2021/03/05 15:04:55;;;;;;;0.60;0.60;;;7.10;93.40;;;;;;4905585;29;20221;-82
2021/03/05 15:07:21;;;;;;;0.60;0.60;;;7.20;93.50;;;;;;4894263;29;20238;-80
2021/03/05 15:09:47;;;;;;;0.60;0.60;;;7.20;94.50;;;;;;4895813;29;20210;-80
2021/03/05 15:12:14;;;;;;;0.60;0.60;;;7.40;94.30;;;;;;4895317;29;20250;-81
2021/03/05 15:14:40;;;;;;;0.60;0.60;;;7.10;93.20;;;;;;4905511;29;20202;-82
2021/03/05 15:17:07;;;;;;;0.60;0.60;;;7.10;93.80;;;;;;4898459;29;20210;-82
2021/03/05 15:19:33;;;;;;;0.60;0.60;;;6.90;94.40;;;;;;4896351;29;20600;-82
2021/03/05 15:21:59;;;;;;;0.50;0.50;;;6.90;94.70;;;;;;4896551;29;20221;-82
2021/03/05 15:24:26;;;;;;;0.60;0.60;;;7.00;94.60;;;;;;4895960;29;20209;-82
2021/03/05 15:26:52;;;;;;;0.60;0.60;;;7.10;94.30;;;;;;4895878;29;20237;-82
2021/03/05 15:29:19;;;;;;;0.57;0.57;;;7.10;95.80;;;;;;4896162;29;20214;-82
2021/03/05 15:31:45;;;;;;;0.60;0.60;;;7.10;94.30;;;;;;4895392;29;20218;-82
2021/03/05 15:34:11;;;;;;;0.60;0.60;;;6.90;94.60;;;;;;4895398;29;20218;-82
2021/03/05 15:36:38;;;;;;;0.60;0.60;;;6.70;95.00;;;;;;4895387;29;20209;-82
2021/03/05 15:39:05;;;;;;;0.60;0.60;;;6.60;95.20;;;;;;4893200;29;20209;-83
2021/03/05 15:41:31;;;;;;;0.60;0.60;;;6.60;95.10;;;;;;4895182;29;20210;-82
2021/03/05 15:43:57;;;;;;;0.60;0.60;;;6.50;95.80;;;;;;4895115;29;20210;-82
2021/03/05 15:46:25;;;;;;;0.60;0.60;;;6.50;94.30;;;;;;4895044;29;20446;-82
2021/03/05 15:48:51;;;;;;;0.60;0.60;;;6.70;96.10;;;;;;4896093;29;20213;-82
2021/03/05 15:51:26;;;;;;;0.60;0.60;;;6.70;95.50;;;;;;4895347;29;20233;-82
2021/03/05 15:53:53;;;;;;;0.60;0.60;;;6.70;94.70;;;;;;4895545;29;20212;-83
2021/03/05 15:56:23;;;;;;;0.55;0.55;;;6.70;95.90;;;;;;4895517;29;20237;-83
2021/03/05 15:58:49;;;;;;;0.50;0.50;;;6.80;96.10;;;;;;4895684;29;20205;-83
2021/03/05 16:01:15;;;;;;;0.60;0.60;;;6.70;96.60;;;;;;4900066;29;20221;-85
2021/03/05 16:03:49;;;;;;;0.60;0.60;;;6.90;96.10;;;;;;4906742;29;20209;-83
2021/03/05 16:06:33;;;;;;;0.60;0.60;;;7.50;96.20;;;;;;4954146;23;20270;-83
2021/03/05 16:08:59;;;;;;;0.60;0.60;;;7.30;95.50;;;;;;4902182;29;20228;-81
2021/03/05 16:11:26;;;;;;;0.60;0.60;;;6.50;96.10;;;;;;4878596;29;20217;-82
2021/03/05 16:13:52;;;;;;;0.60;0.60;;;6.60;96.10;;;;;;4883345;29;20494;-83
2021/03/05 16:16:18;;;;;;;0.60;0.60;;;6.50;95.70;;;;;;4886637;29;20579;-83
2021/03/05 16:18:45;;;;;;;0.60;0.60;;;6.40;96.20;;;;;;4894154;29;20206;-83
2021/03/05 16:21:11;;;;;;;0.50;0.50;;;6.30;97.50;;;;;;4893499;29;20241;-82
2021/03/05 16:23:37;;;;;;;0.60;0.60;;;6.20;97.20;;;;;;4893766;29;20294;-82
2021/03/05 16:26:04;;;;;;;0.60;0.60;;;6.10;98.40;;;;;;4893620;29;20198;-82
2021/03/05 16:28:30;;;;;;;0.60;0.60;;;6.00;98.10;;;;;;4892961;29;20216;-83
2021/03/05 16:30:56;;;;;;;0.60;0.60;;;6.00;98.50;;;;;;4892795;29;20249;-82
2021/03/05 16:33:22;;;;;;;0.60;0.60;;;6.00;99.20;;;;;;4893415;29;20459;-81
2021/03/05 16:35:49;;;;;;;0.60;0.60;;;5.90;99.10;;;;;;4892787;29;20209;-81
2021/03/05 16:38:15;;;;;;;0.60;0.60;;;5.70;99.60;;;;;;4892959;29;20218;-80
2021/03/05 16:40:42;;;;;;;0.60;0.60;;;5.60;99.90;;;;;;4892513;29;20217;-81
2021/03/05 16:43:08;;;;;;;0.60;0.60;;;5.50;99.90;;;;;;4892450;29;20356;-81
2021/03/05 16:45:34;;;;;;;0.60;0.60;;;5.40;99.90;;;;;;4892070;29;20214;-81
2021/03/05 16:48:01;;;;;;;0.60;0.60;;;5.30;99.90;;;;;;4892983;29;20225;-81
2021/03/05 16:50:27;;;;;;;0.50;0.50;;;5.20;99.90;;;;;;4898472;29;20232;-81
2021/03/05 16:52:55;;;;;;;0.60;0.60;;;5.00;99.90;;;;;;4911466;29;20499;-81
2021/03/05 16:55:21;;;;;;;0.60;0.60;;;4.90;99.90;;;;;;4911459;29;20224;-81
2021/03/05 16:57:47;;;;;;;0.60;0.60;;;4.80;99.90;;;;;;4911823;29;20215;-81
2021/03/05 17:00:14;;;;;;;0.60;0.60;;;4.70;99.90;;;;;;4910633;29;20284;-81
2021/03/05 17:02:41;;;;;;;0.60;0.60;;;4.60;99.90;;;;;;4911673;29;20213;-81
2021/03/05 17:05:13;;;;;;;0.60;0.60;;;4.50;99.90;;;;;;4910965;29;20870;-82
2021/03/05 17:07:39;;;;;;;0.60;0.60;;;4.40;99.90;;;;;;4911406;29;20308;-82
2021/03/05 17:10:09;;;;;;;0.60;0.60;;;4.30;99.90;;;;;;4911049;29;20254;-81
2021/03/05 17:12:36;;;;;;;0.55;0.55;;;4.20;99.90;;;;;;4911383;29;20588;-81
2021/03/05 17:15:02;;;;;;;0.60;0.60;;;4.10;99.90;;;;;;4910649;29;20727;-81
2021/03/05 17:17:28;;;;;;;0.60;0.60;;;4.00;99.90;;;;;;4911722;29;20265;-81
2021/03/05 17:19:55;;;;;;;0.60;0.60;;;3.90;99.90;;;;;;4911071;29;20221;-81
2021/03/05 17:22:21;;;;;;;0.60;0.60;;;3.80;99.90;;;;;;4911177;29;20213;-81
2021/03/05 17:24:49;;;;;;;0.60;0.60;;;3.80;99.90;;;;;;4911739;29;20572;-80
2021/03/05 17:27:23;;;;;;;0.60;0.60;;;3.80;99.90;;;;;;4911769;29;20240;-82
2021/03/05 17:29:53;;;;;;;0.55;0.55;;;3.70;99.90;;;;;;4911989;29;20733;-81
2021/03/05 17:32:20;;;;;;;0.60;0.60;;;3.60;99.90;;;;;;4915018;29;20240;-81
2021/03/05 17:34:46;;;;;;;0.60;0.60;;;3.60;99.90;;;;;;4914577;29;20213;-81
2021/03/05 17:37:12;;;;;;;0.60;0.60;;;3.50;99.90;;;;;;4913278;29;20201;-81
2021/03/05 17:39:38;;;;;;;0.60;0.60;;;3.50;99.90;;;;;;4915034;29;20198;-81
2021/03/05 17:42:05;;;;;;;0.60;0.60;;;3.40;99.90;;;;;;4914753;29;20235;-81
2021/03/05 17:44:32;;;;;;;0.60;0.60;;;3.30;99.90;;;;;;4915157;29;20604;-80
2021/03/05 17:46:58;;;;;;;0.60;0.60;;;3.30;99.90;;;;;;4913687;29;20723;-81
2021/03/05 17:49:24;;;;;;;0.60;0.60;;;3.20;99.90;;;;;;4914863;29;20508;-80
2021/03/05 17:51:50;;;;;;;0.60;0.60;;;3.20;99.90;;;;;;4912894;29;20284;-80
2021/03/05 17:54:16;;;;;;;0.60;0.60;;;3.20;99.90;;;;;;4895790;29;20206;-80
2021/03/05 17:56:42;;;;;;;0.60;0.60;;;3.20;99.90;;;;;;4895585;29;20194;-80
2021/03/05 17:59:08;;;;;;;0.60;0.60;;;3.10;99.90;;;;;;4895371;29;20213;-80